Главная страница
METAR-TAF:

METAR-TAF

Аэропорты :

Бахрейн, Бахрейн

широта: 26-16N, долгота: 050-39E, высота над уровнем моря: 2 м

Текущие метеонаблюдения

Эта сводка был подготовлена 24 минут назад, в 22:00 UTC
Ветер 4 Узел от северный
Температура 22°C
Влажность 57%
Давление 1017 hPa
Видимость 10 км и более
Нет облачности ниже 1500 м, и нет кучево-дождевой облачности

METAR: OBBI 092200Z 35004KT CAVOK 22/13 Q1017 NOSIG

Время: 01:24 (22:24 UTC)

Прогноз

Эта сводка был подготовлена 5 часа и 24 минут назад, в 17:00 UTC
Прогноз действительный с 09-го 18 UTC до 11-го 00 UTC
Ветер 8 Узел от северный
Видимость 10 км и более
Нет облачности ниже 1500 м, и нет кучево-дождевой облачности

TAF: OBBI 091700Z 0918/1100 01008KT CAVOK

Метеонаблюдения и прогнозы для более 4000 аэропортов (сводки METAR и TAF).

Имеющиеся станции представлены на карте желтыми и красными точками.

Чтобы увидеть название станции, наведите на нее мышь.

Затем щелкните, чтобы увидеть метеонаблюдения и метеопрогнозы.

Управление картой: чтобы увеличить масштаб, щелкните зеленые кнопки с черным крестиком; чтобы уменьшить масштаб, щелкните зеленую кнопку с тире; для просмотра соседних карт щелкайте зеленые стрелки.


METAR-TAF: